Time;durP1;ratioP1;P1;durP2;ratioP2;P2;SDS_P1;SDS_P2;PMS_P1;PMS_P2;Temp;Humidity;BMP_temperature;BMP_pressure;BME280_temperature;BME280_humidity;BME280_pressure;Samples;Min_cycle;Max_cycle;Signal;HPM_P1;HPM_P2
2023/08/28 00:02:23;;;;;;;1087.55;956.85;;;13.40;99.90;;;;;;5092163;28;20486;-85
2023/08/28 00:04:48;;;;;;;1080.95;943.35;;;13.40;99.90;;;;;;5096214;27;20066;-84
2023/08/28 00:07:14;;;;;;;1238.55;999.75;;;13.40;99.90;;;;;;5092167;28;20478;-84
2023/08/28 00:09:40;;;;;;;1125.05;964.40;;;13.30;99.90;;;;;;5107237;27;20035;-85
2023/08/28 00:12:06;;;;;;;1241.68;999.42;;;13.20;99.90;;;;;;5109434;28;20519;-86
2023/08/28 00:14:32;;;;;;;1131.10;961.15;;;13.20;99.90;;;;;;5105164;27;20043;-85
2023/08/28 00:16:58;;;;;;;1229.47;999.10;;;13.20;99.90;;;;;;5092198;28;20108;-85
2023/08/28 00:19:24;;;;;;;1158.32;970.75;;;13.20;99.90;;;;;;5105374;27;20051;-85
2023/08/28 00:21:49;;;;;;;1203.90;995.35;;;13.20;99.90;;;;;;5103854;28;20039;-85
2023/08/28 00:24:15;;;;;;;1157.95;965.15;;;13.10;99.90;;;;;;5105869;28;20039;-85
2023/08/28 00:26:41;;;;;;;1193.95;992.72;;;13.10;99.90;;;;;;5091328;28;20039;-85
2023/08/28 00:29:06;;;;;;;1179.22;983.42;;;13.10;99.90;;;;;;5118501;27;20082;-85
2023/08/28 00:31:32;;;;;;;1272.15;999.90;;;13.10;99.90;;;;;;5083577;28;20047;-86
2023/08/28 00:33:58;;;;;;;1263.97;999.90;;;13.00;99.90;;;;;;5098169;28;20050;-85
2023/08/28 00:36:24;;;;;;;1279.80;999.90;;;13.00;99.90;;;;;;5107578;28;20423;-85
2023/08/28 00:38:49;;;;;;;1196.38;992.53;;;13.00;99.90;;;;;;5105055;27;20050;-85
2023/08/28 00:41:15;;;;;;;1201.78;986.80;;;13.00;99.90;;;;;;5113849;27;20493;-85
2023/08/28 00:43:41;;;;;;;1258.03;998.80;;;13.00;99.90;;;;;;5102025;27;20047;-85
2023/08/28 00:46:06;;;;;;;1319.75;999.90;;;13.00;99.90;;;;;;5142382;27;20591;-85
2023/08/28 00:48:33;;;;;;;1245.00;999.90;;;13.00;99.90;;;;;;5129963;27;20054;-84
2023/08/28 00:51:00;;;;;;;1258.63;999.90;;;13.00;99.90;;;;;;5109011;28;20122;-85
2023/08/28 00:53:26;;;;;;;1251.07;999.90;;;12.90;99.90;;;;;;5111502;27;20129;-85
2023/08/28 00:55:53;;;;;;;1316.80;999.90;;;12.90;99.90;;;;;;5122895;27;20090;-86
2023/08/28 00:58:20;;;;;;;1388.20;999.90;;;12.90;99.90;;;;;;5113412;27;20031;-85
2023/08/28 01:00:46;;;;;;;1327.60;999.90;;;12.90;99.90;;;;;;5111218;27;20042;-86
2023/08/28 01:03:12;;;;;;;1274.72;999.90;;;12.90;99.90;;;;;;5127213;27;20381;-85
2023/08/28 01:06:03;;;;;;;1335.30;999.90;;;12.90;99.90;;;;;;5110376;27;20131;-84
2023/08/28 01:08:43;;;;;;;1266.88;999.15;;;12.90;99.90;;;;;;5108967;27;20088;-85
2023/08/28 01:11:36;;;;;;;1333.93;999.90;;;12.90;99.90;;;;;;5110921;27;20078;-84
2023/08/28 01:14:28;;;;;;;1406.18;999.90;;;13.00;99.90;;;;;;5112060;27;20056;-85
2023/08/28 01:17:06;;;;;;;1274.20;999.90;;;13.00;99.90;;;;;;5100810;27;20370;-85
2023/08/28 01:19:33;;;;;;;1266.47;998.55;;;13.00;99.90;;;;;;5129027;27;20034;-84
2023/08/28 01:22:21;;;;;;;1263.30;999.90;;;13.00;99.90;;;;;;5128565;27;20047;-85
2023/08/28 01:24:51;;;;;;;1265.60;996.78;;;13.10;99.90;;;;;;5111804;27;20118;-85
2023/08/28 01:27:20;;;;;;;1348.50;999.90;;;13.10;99.90;;;;;;5128495;27;20039;-84
2023/08/28 01:29:45;;;;;;;1393.70;999.90;;;13.10;99.90;;;;;;5097284;27;20046;-84
2023/08/28 01:32:11;;;;;;;1298.90;999.90;;;13.10;99.90;;;;;;5131459;27;20049;-85
2023/08/28 01:34:39;;;;;;;1367.45;999.90;;;13.10;99.90;;;;;;5129609;27;20038;-85
2023/08/28 01:37:16;;;;;;;1367.35;999.90;;;13.10;99.90;;;;;;5128763;27;20043;-85
2023/08/28 01:39:49;;;;;;;1273.97;997.60;;;13.10;99.90;;;;;;5110338;27;20031;-85
2023/08/28 01:42:17;;;;;;;1304.68;999.90;;;13.20;99.90;;;;;;5094199;27;20478;-85
2023/08/28 01:44:44;;;;;;;1348.15;999.90;;;13.10;99.90;;;;;;5120617;27;20126;-85
2023/08/28 01:47:10;;;;;;;1387.38;999.90;;;13.10;99.90;;;;;;5125090;27;20039;-85
2023/08/28 01:49:35;;;;;;;1341.97;999.90;;;13.20;99.90;;;;;;5118355;27;20039;-84
2023/08/28 01:52:01;;;;;;;1261.60;999.90;;;13.20;99.90;;;;;;5129971;27;20058;-85
2023/08/28 01:54:27;;;;;;;1294.68;999.90;;;13.20;99.90;;;;;;5107719;27;20039;-85
2023/08/28 01:56:53;;;;;;;1273.68;999.90;;;13.20;99.90;;;;;;5105891;27;20050;-85
2023/08/28 01:59:19;;;;;;;1299.93;999.90;;;13.20;99.90;;;;;;5114022;27;20042;-85
2023/08/28 02:01:44;;;;;;;1348.75;999.90;;;13.20;99.90;;;;;;5111895;27;20047;-84
2023/08/28 02:04:10;;;;;;;1341.03;999.90;;;13.20;99.90;;;;;;5104604;27;20055;-85
2023/08/28 02:06:36;;;;;;;1244.90;999.90;;;13.20;99.90;;;;;;5111777;27;20039;-86
2023/08/28 02:09:01;;;;;;;1277.50;999.90;;;13.20;99.90;;;;;;5120879;27;20496;-85
2023/08/28 02:11:27;;;;;;;1237.32;998.38;;;13.20;99.90;;;;;;5126907;27;20083;-84
2023/08/28 02:13:53;;;;;;;1317.25;999.90;;;13.10;99.90;;;;;;5111198;27;20039;-85
2023/08/28 02:16:18;;;;;;;1340.05;999.90;;;13.10;99.90;;;;;;5106334;27;20174;-85
2023/08/28 02:18:44;;;;;;;1352.50;999.90;;;13.10;99.90;;;;;;5113981;27;20046;-85
2023/08/28 02:21:10;;;;;;;1269.18;999.90;;;13.10;99.90;;;;;;5126494;27;20062;-84
2023/08/28 02:23:36;;;;;;;1338.95;999.90;;;13.20;99.90;;;;;;5110011;27;20039;-84
2023/08/28 02:26:01;;;;;;;1261.88;999.90;;;13.00;99.90;;;;;;5110036;27;20043;-84
2023/08/28 02:28:27;;;;;;;1270.35;999.90;;;13.00;99.90;;;;;;5111048;27;20050;-84
2023/08/28 02:30:53;;;;;;;1391.75;999.90;;;13.00;99.90;;;;;;5140803;27;20043;-84
2023/08/28 02:33:18;;;;;;;1408.93;999.90;;;13.00;99.90;;;;;;5121406;27;20046;-84
2023/08/28 02:35:47;;;;;;;1376.00;999.90;;;13.00;99.90;;;;;;5131359;27;20506;-85
2023/08/28 02:38:12;;;;;;;1328.88;999.90;;;13.00;99.90;;;;;;5094129;27;20039;-85
2023/08/28 02:40:39;;;;;;;1348.60;999.90;;;13.10;99.90;;;;;;5105993;27;20043;-83
2023/08/28 02:43:05;;;;;;;1314.07;999.90;;;13.10;99.90;;;;;;5139592;27;20039;-85
2023/08/28 02:45:36;;;;;;;1407.40;999.90;;;13.10;99.90;;;;;;5131135;27;20516;-85
2023/08/28 02:48:04;;;;;;;1397.70;999.90;;;13.10;99.90;;;;;;5122850;27;20042;-85
2023/08/28 02:50:31;;;;;;;1301.20;999.90;;;13.10;99.90;;;;;;5108316;27;20039;-85
2023/08/28 02:52:57;;;;;;;1396.93;999.90;;;13.10;99.90;;;;;;5127897;27;21051;-84
2023/08/28 02:55:23;;;;;;;1271.82;999.90;;;13.10;99.90;;;;;;5110356;27;20117;-85
2023/08/28 02:57:49;;;;;;;1384.45;999.90;;;13.10;99.90;;;;;;5117201;27;20035;-85
2023/08/28 03:00:15;;;;;;;1296.20;999.90;;;13.10;99.90;;;;;;5098153;27;20500;-85
2023/08/28 03:02:41;;;;;;;1362.63;999.90;;;13.00;99.90;;;;;;5117307;27;20397;-84
2023/08/28 03:05:09;;;;;;;1392.72;999.90;;;13.00;99.90;;;;;;5127837;27;20054;-84
2023/08/28 03:07:34;;;;;;;1299.40;999.90;;;12.90;99.90;;;;;;5104838;27;20047;-85
2023/08/28 03:10:00;;;;;;;1353.22;999.90;;;12.90;99.90;;;;;;5111025;27;20043;-85
2023/08/28 03:12:26;;;;;;;1305.32;999.90;;;12.90;99.90;;;;;;5121596;27;20460;-85
2023/08/28 03:14:51;;;;;;;1423.82;999.90;;;12.90;99.90;;;;;;5107359;27;20039;-85
2023/08/28 03:17:17;;;;;;;1436.60;999.90;;;12.80;99.90;;;;;;5110265;27;20055;-84
2023/08/28 03:19:43;;;;;;;1411.15;999.90;;;12.80;99.90;;;;;;5105333;27;20133;-84
2023/08/28 03:22:08;;;;;;;1452.15;999.90;;;12.80;99.90;;;;;;5113551;27;20038;-85
2023/08/28 03:24:34;;;;;;;1360.20;999.90;;;12.80;99.90;;;;;;5111264;27;20034;-85
2023/08/28 03:27:01;;;;;;;1394.65;999.90;;;12.80;99.90;;;;;;5101398;27;20142;-85
2023/08/28 03:29:26;;;;;;;1349.25;999.90;;;12.80;99.90;;;;;;5119063;27;20035;-84
2023/08/28 03:31:52;;;;;;;1414.07;999.90;;;12.80;99.90;;;;;;5104578;27;20057;-85
2023/08/28 03:34:18;;;;;;;1364.72;999.90;;;12.80;99.90;;;;;;5129028;27;20065;-85
2023/08/28 03:36:43;;;;;;;1402.05;999.90;;;12.80;99.90;;;;;;5104663;27;20069;-85
2023/08/28 03:39:09;;;;;;;1483.13;999.90;;;12.70;99.90;;;;;;5106447;28;20047;-84
2023/08/28 03:41:35;;;;;;;1422.32;999.90;;;12.70;99.90;;;;;;5111863;27;20389;-85
2023/08/28 03:44:00;;;;;;;1411.10;999.90;;;12.60;99.90;;;;;;5120308;28;20039;-85
2023/08/28 03:46:26;;;;;;;1477.72;999.90;;;12.60;99.90;;;;;;5110021;28;20066;-85
2023/08/28 03:48:52;;;;;;;1494.57;999.90;;;12.50;99.90;;;;;;5115301;28;20047;-85
2023/08/28 03:51:17;;;;;;;1499.88;999.90;;;12.60;99.90;;;;;;5109953;28;20494;-85
2023/08/28 03:53:43;;;;;;;1375.07;999.90;;;12.50;99.90;;;;;;5127984;27;20420;-84
2023/08/28 03:56:09;;;;;;;1501.43;999.90;;;12.50;99.90;;;;;;5117887;28;20044;-85
2023/08/28 03:58:35;;;;;;;1476.40;999.90;;;12.50;99.90;;;;;;5112583;27;20050;-85
2023/08/28 04:01:01;;;;;;;1494.57;999.90;;;12.40;99.90;;;;;;5100274;28;20039;-85
2023/08/28 04:03:27;;;;;;;1521.82;999.90;;;12.30;99.90;;;;;;5093710;28;20474;-85
2023/08/28 04:05:52;;;;;;;1362.40;999.90;;;12.30;99.90;;;;;;5108872;28;20117;-85
2023/08/28 04:08:19;;;;;;;1402.13;999.90;;;12.30;99.90;;;;;;5109855;28;20458;-86
2023/08/28 04:10:45;;;;;;;1439.55;999.90;;;12.20;99.90;;;;;;5110944;27;20103;-84
2023/08/28 04:13:11;;;;;;;1568.13;999.90;;;12.20;99.90;;;;;;5099309;27;20043;-85
2023/08/28 04:15:37;;;;;;;1441.88;999.90;;;12.20;99.90;;;;;;5119569;27;20046;-85
2023/08/28 04:18:04;;;;;;;1456.07;999.90;;;12.10;99.90;;;;;;5096948;27;20050;-84
2023/08/28 04:20:30;;;;;;;1582.53;999.90;;;12.10;99.90;;;;;;5117159;27;20039;-85
2023/08/28 04:22:56;;;;;;;1461.10;999.90;;;12.10;99.90;;;;;;5113340;27;20125;-85
2023/08/28 04:25:21;;;;;;;1419.18;999.90;;;12.10;99.90;;;;;;5132840;27;20171;-85
2023/08/28 04:27:47;;;;;;;1608.68;999.90;;;12.00;99.90;;;;;;5117928;27;20043;-84
2023/08/28 04:30:13;;;;;;;1484.50;999.90;;;12.00;99.90;;;;;;5103914;27;20129;-84
2023/08/28 04:32:39;;;;;;;1590.20;999.90;;;12.00;99.90;;;;;;5130861;27;20038;-84
2023/08/28 04:35:06;;;;;;;1498.18;999.90;;;12.00;99.90;;;;;;5139595;27;20118;-84
2023/08/28 04:37:33;;;;;;;1481.03;999.90;;;12.00;99.90;;;;;;5100612;27;20077;-85
2023/08/28 04:39:58;;;;;;;1481.32;999.90;;;12.00;99.90;;;;;;5118090;27;20039;-85
2023/08/28 04:42:24;;;;;;;1646.40;999.90;;;11.90;99.90;;;;;;5123112;27;20258;-85
2023/08/28 04:44:50;;;;;;;1627.07;999.90;;;11.90;99.90;;;;;;5122518;27;20414;-85
2023/08/28 04:47:16;;;;;;;1557.22;999.90;;;11.80;99.90;;;;;;5095573;27;20394;-85
2023/08/28 04:49:42;;;;;;;1471.13;999.90;;;11.80;99.90;;;;;;5110740;27;20077;-86
2023/08/28 04:52:07;;;;;;;1611.28;999.90;;;11.80;99.90;;;;;;5110991;27;20053;-85
2023/08/28 04:54:34;;;;;;;1417.40;999.90;;;11.80;99.90;;;;;;5122660;27;20067;-85
2023/08/28 04:56:59;;;;;;;1597.03;999.90;;;11.80;99.90;;;;;;5119816;27;20042;-85
2023/08/28 04:59:25;;;;;;;1492.60;999.90;;;11.80;99.90;;;;;;5115486;27;20045;-85
2023/08/28 05:01:51;;;;;;;1539.20;999.90;;;11.80;99.90;;;;;;5111538;27;20374;-86
2023/08/28 05:04:17;;;;;;;1495.30;999.90;;;11.90;99.90;;;;;;5128872;27;20051;-86
2023/08/28 05:06:42;;;;;;;1669.25;999.90;;;11.90;99.90;;;;;;5114861;27;20043;-85
2023/08/28 05:09:10;;;;;;;1645.60;999.90;;;12.00;99.90;;;;;;5122402;27;20043;-85
2023/08/28 05:11:36;;;;;;;1688.50;999.90;;;12.10;99.90;;;;;;5126054;27;20118;-86
2023/08/28 05:14:02;;;;;;;1645.63;999.90;;;12.10;99.90;;;;;;5133049;27;20241;-86
2023/08/28 05:16:27;;;;;;;1490.47;999.90;;;12.10;99.90;;;;;;5116064;27;20062;-86
2023/08/28 05:18:53;;;;;;;1515.60;999.90;;;12.10;99.90;;;;;;5121460;27;20459;-86
2023/08/28 05:21:19;;;;;;;1594.90;999.90;;;12.20;99.90;;;;;;5113168;27;20125;-87
2023/08/28 05:23:44;;;;;;;1589.70;999.90;;;12.20;99.90;;;;;;5114053;27;20043;-86
2023/08/28 05:26:10;;;;;;;1605.43;999.90;;;12.30;99.90;;;;;;5143518;27;20040;-86
2023/08/28 05:28:37;;;;;;;1612.85;999.90;;;12.30;99.90;;;;;;5099319;27;20050;-86
2023/08/28 05:31:03;;;;;;;1618.43;999.90;;;12.40;99.90;;;;;;5097791;27;20099;-86
2023/08/28 05:33:30;;;;;;;1469.88;999.90;;;12.40;99.90;;;;;;5095038;27;20056;-86
2023/08/28 05:35:56;;;;;;;1620.20;999.90;;;12.50;99.90;;;;;;5112054;27;20034;-86
2023/08/28 05:38:22;;;;;;;1477.97;999.90;;;12.50;99.90;;;;;;5116180;27;20031;-86
2023/08/28 05:40:47;;;;;;;1609.07;999.90;;;12.50;99.90;;;;;;5130268;27;20491;-85
2023/08/28 05:43:13;;;;;;;1581.43;999.90;;;12.50;99.90;;;;;;5132684;27;20038;-86
2023/08/28 05:45:39;;;;;;;1543.32;999.90;;;12.60;99.90;;;;;;5131767;27;20082;-86
2023/08/28 05:48:05;;;;;;;1500.50;999.90;;;12.60;99.90;;;;;;5114088;27;20515;-86
2023/08/28 05:50:31;;;;;;;1562.28;999.90;;;12.70;99.90;;;;;;5127718;27;20390;-86
2023/08/28 05:52:56;;;;;;;1535.38;999.90;;;12.80;99.90;;;;;;5123215;27;20039;-86
2023/08/28 05:55:22;;;;;;;1386.55;999.90;;;12.90;99.90;;;;;;5130369;27;20501;-87
2023/08/28 05:57:48;;;;;;;1380.38;999.90;;;12.90;99.90;;;;;;5114939;27;20043;-86
2023/08/28 06:00:14;;;;;;;1348.03;999.90;;;13.00;99.90;;;;;;5113737;27;20050;-86
2023/08/28 06:02:41;;;;;;;1483.95;999.90;;;13.10;99.90;;;;;;5104665;27;20512;-86
2023/08/28 06:05:07;;;;;;;1381.60;999.90;;;13.20;99.90;;;;;;5093734;28;20044;-86
2023/08/28 06:07:34;;;;;;;1304.70;999.90;;;13.30;99.90;;;;;;5102594;27;20482;-86
2023/08/28 06:10:00;;;;;;;1437.47;999.90;;;13.40;99.90;;;;;;5106477;28;20073;-86
2023/08/28 06:12:25;;;;;;;1313.40;999.90;;;13.50;99.90;;;;;;5093756;27;20054;-86
2023/08/28 06:14:51;;;;;;;1297.32;999.90;;;13.50;99.90;;;;;;5110469;27;20043;-86
2023/08/28 06:17:17;;;;;;;1401.88;999.90;;;13.60;99.90;;;;;;5093612;27;20410;-86
2023/08/28 06:19:43;;;;;;;1290.53;999.90;;;13.70;99.90;;;;;;5093894;27;20126;-87
2023/08/28 06:22:08;;;;;;;1326.10;999.90;;;13.80;99.90;;;;;;5110707;27;20128;-86
2023/08/28 06:24:34;;;;;;;1341.53;999.90;;;13.80;99.90;;;;;;5090805;27;20039;-85
2023/08/28 06:27:00;;;;;;;1231.78;996.80;;;13.90;99.90;;;;;;5110917;27;20183;-86
2023/08/28 06:29:26;;;;;;;1267.45;999.90;;;14.00;99.90;;;;;;5099077;27;20042;-86
2023/08/28 06:31:51;;;;;;;1200.18;997.88;;;14.10;99.90;;;;;;5129143;27;20046;-87
2023/08/28 06:34:17;;;;;;;1244.22;999.90;;;14.10;99.90;;;;;;5092145;28;20071;-87
2023/08/28 06:36:52;;;;;;;1250.18;999.90;;;14.20;99.90;;;;;;5107637;28;20055;-86
2023/08/28 06:39:21;;;;;;;1176.35;979.38;;;14.30;99.90;;;;;;5085961;28;20141;-86
2023/08/28 06:41:47;;;;;;;1241.95;999.47;;;14.40;99.90;;;;;;5127694;27;20047;-85
2023/08/28 06:44:13;;;;;;;1260.88;999.90;;;14.40;99.90;;;;;;5093140;27;20431;-86
2023/08/28 06:46:38;;;;;;;1182.50;992.88;;;14.60;99.90;;;;;;5092966;27;20508;-86
2023/08/28 06:49:04;;;;;;;1104.93;958.88;;;14.70;99.90;;;;;;5093497;27;20051;-85
2023/08/28 06:51:30;;;;;;;1124.28;971.10;;;14.70;99.90;;;;;;5092782;27;20119;-85
2023/08/28 06:53:57;;;;;;;1159.32;993.85;;;14.80;99.90;;;;;;5093679;27;20050;-87
2023/08/28 06:56:23;;;;;;;1117.63;978.53;;;14.90;99.90;;;;;;5084796;28;20126;-83
2023/08/28 06:58:48;;;;;;;1096.43;948.97;;;15.00;99.90;;;;;;5108206;27;20557;-83
2023/08/28 07:01:14;;;;;;;1036.32;926.63;;;15.00;99.90;;;;;;5128419;27;20122;-83
2023/08/28 07:03:40;;;;;;;992.67;888.88;;;15.10;99.90;;;;;;5091670;27;20126;-85
2023/08/28 07:06:06;;;;;;;974.83;873.20;;;15.20;99.90;;;;;;5107755;27;20039;-86
2023/08/28 07:08:32;;;;;;;987.53;884.88;;;15.30;99.90;;;;;;5127563;27;20191;-85
2023/08/28 07:10:57;;;;;;;982.17;880.45;;;15.40;99.90;;;;;;5127689;27;20505;-86
2023/08/28 07:13:23;;;;;;;965.70;867.17;;;15.50;99.90;;;;;;5109527;27;20039;-85
2023/08/28 07:15:49;;;;;;;980.22;878.22;;;15.60;99.90;;;;;;5092530;27;20500;-85
2023/08/28 07:18:16;;;;;;;975.63;874.47;;;15.70;99.90;;;;;;5081389;28;20486;-86
2023/08/28 07:20:42;;;;;;;969.15;869.03;;;15.80;99.90;;;;;;5099588;27;20175;-84
2023/08/28 07:23:09;;;;;;;943.80;848.53;;;15.90;99.90;;;;;;5108934;27;20118;-85
2023/08/28 07:25:34;;;;;;;1017.50;911.35;;;16.00;99.90;;;;;;5108597;27;20491;-86
2023/08/28 07:28:00;;;;;;;959.20;861.80;;;16.10;99.90;;;;;;5092434;28;20066;-85
2023/08/28 07:30:26;;;;;;;905.33;814.42;;;16.20;99.90;;;;;;5089665;28;20132;-85
2023/08/28 07:32:51;;;;;;;908.78;825.83;;;16.30;99.90;;;;;;5126564;27;20461;-85
2023/08/28 07:35:17;;;;;;;882.28;806.78;;;16.40;99.90;;;;;;5093232;28;20042;-85
2023/08/28 07:37:43;;;;;;;955.17;864.35;;;16.40;99.90;;;;;;5092469;28;20757;-86
2023/08/28 07:40:10;;;;;;;818.40;749.83;;;16.40;99.90;;;;;;5126753;28;20043;-85
2023/08/28 07:42:36;;;;;;;890.38;810.50;;;16.50;99.90;;;;;;5109364;28;20113;-85
2023/08/28 07:45:03;;;;;;;846.72;774.90;;;16.70;99.90;;;;;;5108830;28;20043;-85
2023/08/28 07:47:30;;;;;;;830.63;758.70;;;16.80;99.90;;;;;;5094079;27;20096;-85
2023/08/28 07:49:55;;;;;;;849.55;776.30;;;16.90;99.90;;;;;;5096858;27;20129;-85
2023/08/28 07:52:21;;;;;;;809.85;739.13;;;17.10;99.90;;;;;;5094940;27;20176;-84
2023/08/28 07:54:47;;;;;;;778.70;710.92;;;17.30;99.90;;;;;;5095079;27;20042;-85
2023/08/28 07:57:13;;;;;;;532.38;490.63;;;17.40;99.90;;;;;;5083264;27;20125;-86
2023/08/28 07:59:39;;;;;;;722.60;660.47;;;17.60;99.90;;;;;;5114091;27;20382;-85
2023/08/28 08:02:13;;;;;;;719.63;659.50;;;17.80;99.90;;;;;;5111562;27;20055;-85
2023/08/28 08:04:39;;;;;;;470.20;435.98;;;17.90;99.90;;;;;;5107803;27;20162;-85
2023/08/28 08:07:05;;;;;;;204.88;188.57;;;18.00;99.90;;;;;;5106961;28;20139;-85
2023/08/28 08:09:30;;;;;;;454.65;415.88;;;18.00;99.90;;;;;;5099216;28;20470;-86
2023/08/28 08:11:56;;;;;;;835.08;757.17;;;18.00;99.90;;;;;;5096201;28;20044;-86
2023/08/28 08:14:23;;;;;;;789.63;715.83;;;17.90;99.90;;;;;;5105755;27;20130;-86
2023/08/28 08:16:48;;;;;;;678.25;616.42;;;17.80;99.90;;;;;;5102548;27;20138;-87
2023/08/28 08:19:14;;;;;;;561.60;511.35;;;17.80;99.90;;;;;;5087760;28;20078;-86
2023/08/28 08:21:40;;;;;;;781.28;709.50;;;17.90;99.90;;;;;;5095559;27;20044;-86
2023/08/28 08:24:06;;;;;;;836.50;755.50;;;17.90;99.90;;;;;;5123307;27;20501;-85
2023/08/28 08:26:33;;;;;;;880.00;794.70;;;17.90;99.90;;;;;;5088759;28;20049;-86
2023/08/28 08:28:59;;;;;;;871.25;786.42;;;17.90;99.90;;;;;;5123845;27;20039;-85
2023/08/28 08:31:25;;;;;;;788.67;713.13;;;18.00;99.90;;;;;;5093983;28;20085;-85
2023/08/28 08:33:51;;;;;;;732.58;663.25;;;18.20;99.90;;;;;;5120364;27;20039;-85
2023/08/28 08:36:17;;;;;;;851.33;767.13;;;18.40;99.90;;;;;;5108895;27;20134;-86
2023/08/28 08:38:43;;;;;;;812.90;732.58;;;18.60;99.90;;;;;;5098753;27;20038;-86
2023/08/28 08:41:09;;;;;;;699.45;634.08;;;18.90;99.90;;;;;;5096322;28;20130;-86
2023/08/28 08:43:36;;;;;;;544.60;498.88;;;19.20;99.90;;;;;;5091519;27;20040;-87
2023/08/28 08:46:08;;;;;;;512.88;469.17;;;19.50;99.90;;;;;;5095824;27;20064;-86
2023/08/28 08:48:38;;;;;;;529.05;485.10;;;19.70;99.90;;;;;;5126924;27;20108;-85
2023/08/28 08:51:07;;;;;;;507.55;461.13;;;19.60;99.90;;;;;;5090493;28;20051;-86
2023/08/28 08:53:53;;;;;;;678.10;614.72;;;19.30;99.90;;;;;;5077265;28;20047;-86
2023/08/28 08:56:23;;;;;;;888.85;796.67;;;19.00;99.90;;;;;;5091740;28;20055;-86
2023/08/28 08:58:50;;;;;;;711.08;644.50;;;18.70;99.90;;;;;;5087088;27;20051;-85
2023/08/28 09:01:17;;;;;;;468.25;427.95;;;18.50;99.90;;;;;;5104864;27;20050;-85
2023/08/28 09:03:44;;;;;;;316.77;293.77;;;18.50;99.90;;;;;;5090856;27;20048;-86
2023/08/28 09:06:11;;;;;;;482.33;440.67;;;18.60;99.90;;;;;;5112531;27;20047;-86
2023/08/28 09:08:39;;;;;;;552.08;503.70;;;18.80;99.90;;;;;;5106293;27;20519;-85
2023/08/28 09:11:06;;;;;;;414.13;381.33;;;18.90;99.90;;;;;;5077196;28;20055;-86
2023/08/28 09:13:33;;;;;;;545.88;496.05;;;19.10;99.90;;;;;;5110816;27;20039;-85
2023/08/28 09:15:58;;;;;;;472.52;432.83;;;19.20;99.90;;;;;;5130387;27;20055;-85
2023/08/28 09:18:28;;;;;;;451.20;412.60;;;19.40;99.90;;;;;;5108355;28;20030;-86
2023/08/28 09:21:11;;;;;;;490.00;444.40;;;19.70;99.90;;;;;;5109403;27;20042;-86
2023/08/28 09:23:52;;;;;;;956.70;865.08;;;19.90;99.90;;;;;;5094577;27;20042;-84
2023/08/28 09:26:20;;;;;;;936.75;838.33;;;19.80;99.90;;;;;;5107623;28;20079;-85
2023/08/28 09:28:58;;;;;;;866.88;776.63;;;19.70;99.90;;;;;;5102423;28;20127;-87
2023/08/28 09:31:33;;;;;;;763.80;687.53;;;19.50;99.90;;;;;;5087917;28;20176;-82
2023/08/28 09:33:59;;;;;;;975.42;880.03;;;19.50;99.90;;;;;;5105217;27;20043;-84
2023/08/28 09:36:28;;;;;;;955.38;864.83;;;19.30;99.90;;;;;;5092513;27;20134;-83
2023/08/28 09:39:07;;;;;;;987.70;890.65;;;19.20;99.90;;;;;;5111075;27;20047;-82
2023/08/28 09:41:45;;;;;;;961.40;870.15;;;19.10;99.90;;;;;;5095302;27;20083;-83
2023/08/28 09:44:13;;;;;;;948.72;851.15;;;19.10;99.90;;;;;;5111403;27;20045;-83
2023/08/28 09:46:41;;;;;;;748.92;674.72;;;19.10;99.90;;;;;;5093781;27;20039;-82
2023/08/28 09:49:10;;;;;;;964.05;866.65;;;19.30;99.90;;;;;;5111196;27;20118;-82
2023/08/28 09:51:43;;;;;;;981.40;882.95;;;19.20;99.90;;;;;;5110978;27;20043;-82
2023/08/28 09:54:09;;;;;;;1078.78;959.50;;;19.10;99.90;;;;;;5093879;27;20046;-86
2023/08/28 09:56:36;;;;;;;986.55;885.65;;;18.90;99.90;;;;;;5093129;27;20042;-84
2023/08/28 09:59:06;;;;;;;976.75;873.85;;;18.80;99.90;;;;;;5082183;28;20043;-85
2023/08/28 10:01:34;;;;;;;863.53;782.85;;;18.50;99.90;;;;;;5094199;27;20035;-86
2023/08/28 10:04:02;;;;;;;724.08;658.85;;;18.30;99.90;;;;;;5094505;27;20536;-85
2023/08/28 10:06:32;;;;;;;528.78;483.58;;;18.20;99.90;;;;;;5092986;27;20046;-87
2023/08/28 10:09:01;;;;;;;544.40;495.73;;;18.20;99.90;;;;;;5094678;27;20126;-87
2023/08/28 10:11:36;;;;;;;547.30;502.08;;;18.20;99.90;;;;;;5106534;27;20044;-87
2023/08/28 10:14:03;;;;;;;521.33;478.35;;;18.20;99.90;;;;;;5084089;28;20036;-87
2023/08/28 10:16:33;;;;;;;589.00;540.67;;;18.20;99.90;;;;;;5096651;27;20031;-87
2023/08/28 10:19:21;;;;;;;559.03;513.33;;;18.30;99.90;;;;;;5088102;27;20039;-87
2023/08/28 10:21:48;;;;;;;601.38;550.58;;;18.40;99.90;;;;;;5080669;27;20100;-84
2023/08/28 10:24:16;;;;;;;541.92;499.05;;;18.40;99.90;;;;;;5108546;27;20481;-85
2023/08/28 10:26:43;;;;;;;593.65;543.53;;;18.50;99.90;;;;;;5074289;28;20044;-83
2023/08/28 10:29:11;;;;;;;602.38;552.63;;;18.60;99.90;;;;;;5089202;27;20468;-82
2023/08/28 10:31:38;;;;;;;606.28;555.28;;;18.70;99.90;;;;;;5109990;27;20058;-83
2023/08/28 10:34:07;;;;;;;593.50;544.80;;;18.80;99.90;;;;;;5093490;27;20494;-82
2023/08/28 10:36:34;;;;;;;588.97;540.90;;;19.00;99.90;;;;;;5092801;27;20046;-83
2023/08/28 10:39:03;;;;;;;501.30;462.33;;;19.10;99.90;;;;;;5110353;27;20099;-83
2023/08/28 10:41:30;;;;;;;479.52;441.25;;;19.20;99.90;;;;;;5093411;27;20043;-83
2023/08/28 10:44:01;;;;;;;490.60;453.33;;;19.20;99.90;;;;;;5091851;27;20125;-82
2023/08/28 10:46:28;;;;;;;681.35;614.45;;;19.20;99.90;;;;;;5129090;27;20039;-83
2023/08/28 10:48:59;;;;;;;743.10;671.22;;;19.20;99.90;;;;;;5092197;27;20043;-83
2023/08/28 10:51:35;;;;;;;614.15;560.00;;;19.20;99.90;;;;;;5092311;27;20053;-83
2023/08/28 10:54:10;;;;;;;708.05;640.22;;;19.20;99.90;;;;;;5092903;27;20047;-83
2023/08/28 10:56:37;;;;;;;769.17;691.42;;;19.30;99.90;;;;;;5092707;27;20031;-83
2023/08/28 10:59:25;;;;;;;877.53;788.25;;;19.30;99.90;;;;;;5110293;27;20043;-83
2023/08/28 11:01:52;;;;;;;781.10;702.60;;;19.40;99.90;;;;;;5092055;27;20043;-83
2023/08/28 11:04:18;;;;;;;813.47;731.05;;;19.40;99.90;;;;;;5092677;27;20051;-83
2023/08/28 11:06:45;;;;;;;756.88;683.08;;;19.50;99.90;;;;;;5095059;27;20088;-83
2023/08/28 11:09:28;;;;;;;848.65;761.63;;;19.60;99.90;;;;;;5093084;27;20083;-82
2023/08/28 11:12:15;;;;;;;663.75;600.22;;;19.70;99.90;;;;;;5092667;28;20059;-83
2023/08/28 11:14:56;;;;;;;674.47;607.90;;;19.70;99.90;;;;;;5053005;28;20055;-83
2023/08/28 11:17:22;;;;;;;601.05;543.28;;;20.00;99.90;;;;;;5102019;27;20090;-83
2023/08/28 11:19:54;;;;;;;570.85;514.60;;;20.20;99.90;;;;;;5086510;28;20063;-83
2023/08/28 11:22:39;;;;;;;775.03;698.67;;;20.60;99.90;;;;;;5119118;27;20100;-84
2023/08/28 11:25:11;;;;;;;695.50;621.70;;;20.80;99.90;;;;;;5080650;27;20040;-84
2023/08/28 11:27:37;;;;;;;594.92;537.38;;;21.00;99.90;;;;;;5076574;28;20135;-84
2023/08/28 11:30:07;;;;;;;655.42;600.90;;;21.30;99.90;;;;;;5116738;28;20126;-82
2023/08/28 11:32:34;;;;;;;691.70;625.85;;;21.40;99.90;;;;;;5086497;28;20498;-83
2023/08/28 11:35:04;;;;;;;648.38;588.58;;;21.40;99.90;;;;;;5109685;28;20097;-83
2023/08/28 11:37:32;;;;;;;667.20;605.03;;;21.20;99.90;;;;;;5093649;27;20043;-87
2023/08/28 11:39:58;;;;;;;688.30;624.63;;;20.90;99.90;;;;;;5098717;28;20048;-88
2023/08/28 11:42:30;;;;;;;641.65;590.83;;;20.60;99.90;;;;;;5098219;28;20043;-91
2023/08/28 11:45:04;;;;;;;622.15;570.88;;;20.20;99.90;;;;;;5096782;28;20047;-93
2023/08/28 11:47:32;;;;;;;599.10;551.92;;;19.90;99.90;;;;;;5095267;28;20050;-93
2023/08/28 11:49:59;;;;;;;647.53;593.33;;;19.50;99.90;;;;;;5085485;28;20337;-91
2023/08/28 11:52:32;;;;;;;775.40;710.20;;;19.30;99.90;;;;;;5080205;28;20050;-94
2023/08/28 11:55:10;;;;;;;897.60;815.70;;;19.00;99.90;;;;;;5081786;28;20043;-93
2023/08/28 11:57:38;;;;;;;839.05;760.95;;;18.90;99.90;;;;;;5097619;28;20150;-89
2023/08/28 12:00:09;;;;;;;503.40;463.50;;;18.70;99.90;;;;;;5114234;28;20049;-93
2023/08/28 12:02:43;;;;;;;456.17;418.40;;;18.70;99.90;;;;;;5089595;28;20035;-92
2023/08/28 12:05:10;;;;;;;490.30;443.85;;;18.60;99.90;;;;;;5112968;28;20044;-91
2023/08/28 12:07:36;;;;;;;493.42;446.13;;;18.60;99.90;;;;;;5095603;28;20036;-91